createdAt,value
2022-08-21T00:01:53.831Z,99.90
2022-08-21T00:04:22.526Z,99.90
2022-08-21T00:06:52.173Z,99.90
2022-08-21T00:09:38.575Z,99.90
2022-08-21T00:12:06.547Z,99.90
2022-08-21T00:14:35.231Z,99.90
2022-08-21T00:17:03.387Z,99.90
2022-08-21T00:19:31.491Z,99.90
2022-08-21T00:21:58.999Z,99.90
2022-08-21T00:24:26.766Z,99.90
2022-08-21T00:26:54.421Z,99.90
2022-08-21T00:29:21.801Z,99.90
2022-08-21T00:31:49.186Z,99.90
2022-08-21T00:34:16.540Z,99.90
2022-08-21T00:36:43.924Z,99.90
2022-08-21T00:39:11.380Z,99.90
2022-08-21T00:41:40.490Z,99.90
2022-08-21T00:44:10.752Z,99.90
2022-08-21T00:46:39.048Z,99.90
2022-08-21T00:49:07.617Z,99.90
2022-08-21T00:51:52.028Z,99.90
2022-08-21T00:54:23.358Z,99.90
2022-08-21T00:56:55.522Z,99.90
2022-08-21T00:59:24.356Z,99.90
2022-08-21T01:01:53.168Z,99.90
2022-08-21T01:04:21.701Z,99.90
2022-08-21T01:06:49.077Z,99.90
2022-08-21T01:09:16.603Z,99.90
2022-08-21T01:11:44.729Z,99.90
2022-08-21T01:14:15.039Z,99.90
2022-08-21T01:16:45.646Z,99.90
2022-08-21T01:19:13.478Z,99.90
2022-08-21T01:21:40.882Z,99.90
2022-08-21T01:24:08.259Z,99.90
2022-08-21T01:26:36.821Z,99.90
2022-08-21T01:29:23.962Z,99.90
2022-08-21T01:31:51.520Z,99.90
2022-08-21T01:34:19.450Z,99.90
2022-08-21T01:36:47.968Z,99.90
2022-08-21T01:39:16.198Z,99.90
2022-08-21T01:41:44.301Z,99.90
2022-08-21T01:44:11.941Z,99.90
2022-08-21T01:46:39.837Z,99.90
2022-08-21T01:49:07.337Z,99.90
2022-08-21T01:51:34.725Z,99.90
2022-08-21T01:54:02.113Z,99.90
2022-08-21T01:56:29.654Z,99.90
2022-08-21T01:58:57.060Z,99.90
2022-08-21T02:01:24.517Z,99.90
2022-08-21T02:03:51.914Z,99.90
2022-08-21T02:06:19.322Z,99.90
2022-08-21T02:08:48.327Z,99.90
2022-08-21T02:11:15.812Z,99.90
2022-08-21T02:13:43.418Z,99.90
2022-08-21T02:16:11.067Z,99.90
2022-08-21T02:18:38.838Z,99.90
2022-08-21T02:21:06.920Z,99.90
2022-08-21T02:23:35.071Z,99.90
2022-08-21T02:26:05.716Z,99.90
2022-08-21T02:28:33.411Z,99.90
2022-08-21T02:31:00.948Z,99.90
2022-08-21T02:33:28.647Z,99.90
2022-08-21T02:35:57.412Z,99.90
2022-08-21T02:38:29.375Z,99.90
2022-08-21T02:40:56.692Z,99.90
2022-08-21T02:43:26.755Z,99.90
2022-08-21T02:45:55.380Z,99.90
2022-08-21T02:48:26.954Z,99.90
2022-08-21T02:50:58.516Z,99.90
2022-08-21T02:53:26.805Z,99.90
2022-08-21T02:55:55.044Z,99.90
2022-08-21T02:58:34.206Z,99.90
2022-08-21T03:01:02.377Z,99.90
2022-08-21T03:03:30.417Z,99.90
2022-08-21T03:05:57.991Z,99.90
2022-08-21T03:08:27.710Z,99.90
2022-08-21T03:10:55.627Z,99.90
2022-08-21T03:13:23.685Z,99.90
2022-08-21T03:15:51.437Z,99.90
2022-08-21T03:18:19.156Z,99.90
2022-08-21T03:20:47.931Z,99.90
2022-08-21T03:23:18.415Z,99.90
2022-08-21T03:25:47.532Z,99.90
2022-08-21T03:28:17.635Z,99.90
2022-08-21T03:30:47.470Z,99.90
2022-08-21T03:33:15.952Z,99.90
2022-08-21T03:35:45.687Z,99.90
2022-08-21T03:38:14.031Z,99.90
2022-08-21T03:40:43.144Z,99.90
2022-08-21T03:43:10.937Z,99.90
2022-08-21T03:45:39.344Z,99.90
2022-08-21T03:48:07.824Z,99.90
2022-08-21T03:50:41.079Z,99.90
2022-08-21T03:53:17.385Z,99.90
2022-08-21T03:55:47.753Z,99.90
2022-08-21T03:58:20.572Z,99.90
2022-08-21T04:00:50.890Z,99.90
2022-08-21T04:03:18.942Z,99.90
2022-08-21T04:05:46.972Z,99.90
2022-08-21T04:08:16.146Z,99.90
2022-08-21T04:10:45.566Z,99.90
2022-08-21T04:13:13.185Z,99.90
2022-08-21T04:15:40.797Z,99.90
2022-08-21T04:18:09.401Z,99.90
2022-08-21T04:20:36.856Z,99.90
2022-08-21T04:23:04.609Z,99.90
2022-08-21T04:25:32.781Z,99.90
2022-08-21T04:28:00.221Z,99.90
2022-08-21T04:30:28.869Z,99.90
2022-08-21T04:32:58.770Z,99.90
2022-08-21T04:35:28.528Z,99.90
2022-08-21T04:37:56.715Z,99.90
2022-08-21T04:40:27.267Z,99.90
2022-08-21T04:43:00.912Z,99.90
2022-08-21T04:45:35.243Z,99.90
2022-08-21T04:48:08.621Z,99.90
2022-08-21T04:51:30.136Z,99.90
2022-08-21T04:54:07.747Z,99.90
2022-08-21T04:56:46.457Z,99.90
2022-08-21T04:59:29.099Z,99.90
2022-08-21T05:01:57.813Z,99.90
2022-08-21T05:04:29.128Z,99.90
2022-08-21T05:07:01.059Z,99.90
2022-08-21T05:09:29.090Z,99.90
2022-08-21T05:11:57.057Z,99.90
2022-08-21T05:14:24.661Z,99.90
2022-08-21T05:16:52.698Z,99.90
2022-08-21T05:19:20.302Z,99.90
2022-08-21T05:21:49.031Z,99.90
2022-08-21T05:24:17.036Z,99.90
2022-08-21T05:26:46.251Z,99.90
2022-08-21T05:29:18.245Z,99.90
2022-08-21T05:31:47.499Z,99.90
2022-08-21T05:34:19.693Z,99.90
2022-08-21T05:36:47.545Z,99.90
2022-08-21T05:39:16.095Z,99.90
2022-08-21T05:41:43.525Z,99.90
2022-08-21T05:44:11.325Z,99.90
2022-08-21T05:46:39.246Z,99.90
2022-08-21T05:49:06.817Z,99.90
2022-08-21T05:51:34.251Z,99.90
2022-08-21T05:54:01.560Z,99.90
2022-08-21T05:56:28.977Z,99.90
2022-08-21T05:58:56.688Z,99.90
2022-08-21T06:01:24.091Z,99.90
2022-08-21T06:03:51.892Z,99.90
2022-08-21T06:06:21.192Z,99.90
2022-08-21T06:08:48.498Z,99.90
2022-08-21T06:11:15.857Z,99.90
2022-08-21T06:13:43.171Z,99.90
2022-08-21T06:16:15.916Z,99.90
2022-08-21T06:18:45.656Z,99.90
2022-08-21T06:21:13.977Z,99.90
2022-08-21T06:23:42.140Z,99.90
2022-08-21T06:26:10.498Z,99.90
2022-08-21T06:28:38.079Z,99.90
2022-08-21T06:31:31.884Z,99.90
2022-08-21T06:33:59.236Z,99.90
2022-08-21T06:36:26.899Z,99.90
2022-08-21T06:38:54.218Z,99.90
2022-08-21T06:41:26.979Z,99.90
2022-08-21T06:43:56.761Z,99.90
2022-08-21T06:46:25.950Z,99.90
2022-08-21T06:48:53.351Z,99.90
2022-08-21T06:51:20.767Z,99.90
2022-08-21T06:53:48.152Z,99.90
2022-08-21T06:56:15.517Z,99.90
2022-08-21T06:58:42.818Z,99.90
2022-08-21T07:01:10.326Z,99.90
2022-08-21T07:03:41.711Z,99.90
2022-08-21T07:06:11.735Z,99.90
2022-08-21T07:08:39.890Z,99.90
2022-08-21T07:11:13.801Z,99.90
2022-08-21T07:13:41.288Z,99.90
2022-08-21T07:16:09.277Z,99.90
2022-08-21T07:18:36.606Z,99.90
2022-08-21T07:21:06.941Z,99.90
2022-08-21T07:23:40.645Z,99.90
2022-08-21T07:26:09.715Z,99.90
2022-08-21T07:28:37.097Z,99.90
2022-08-21T07:31:05.400Z,99.90
2022-08-21T07:33:34.752Z,99.90
2022-08-21T07:36:02.528Z,99.90
2022-08-21T07:38:29.939Z,99.90
2022-08-21T07:40:59.972Z,99.90
2022-08-21T07:43:28.117Z,99.90
2022-08-21T07:45:55.923Z,99.90
2022-08-21T07:48:23.870Z,99.90
2022-08-21T07:50:52.157Z,99.90
2022-08-21T07:53:19.479Z,99.90
2022-08-21T07:55:47.166Z,99.90
2022-08-21T07:58:14.496Z,99.90
2022-08-21T08:00:42.290Z,99.90
2022-08-21T08:03:09.781Z,99.90
2022-08-21T08:05:40.902Z,99.90
2022-08-21T08:08:08.425Z,99.90
2022-08-21T08:10:36.756Z,99.90
2022-08-21T08:13:04.069Z,99.90
2022-08-21T08:15:35.468Z,99.90
2022-08-21T08:18:05.040Z,99.90
2022-08-21T08:20:32.601Z,99.90
2022-08-21T08:23:00.280Z,99.90
2022-08-21T08:25:36.366Z,99.90
2022-08-21T08:28:07.351Z,99.90
2022-08-21T08:30:46.971Z,99.90
2022-08-21T08:33:15.729Z,99.90
2022-08-21T08:35:47.197Z,99.90
2022-08-21T08:38:19.790Z,99.90
2022-08-21T08:41:06.880Z,99.90
2022-08-21T08:43:35.574Z,99.90
2022-08-21T08:46:06.927Z,99.90
2022-08-21T08:48:54.701Z,99.90
2022-08-21T08:51:41.296Z,99.90
2022-08-21T08:54:13.186Z,99.90
2022-08-21T08:56:40.709Z,99.90
2022-08-21T08:59:22.152Z,99.90
2022-08-21T09:01:49.688Z,99.90
2022-08-21T09:04:26.165Z,99.90
2022-08-21T09:07:35.417Z,99.90
2022-08-21T09:10:40.270Z,99.90
2022-08-21T09:14:09.193Z,99.90
2022-08-21T09:17:11.289Z,99.90
2022-08-21T09:20:24.512Z,99.90
2022-08-21T09:23:33.120Z,99.90
2022-08-21T09:26:20.391Z,99.90
2022-08-21T09:28:52.993Z,99.90
2022-08-21T09:31:33.588Z,99.90
2022-08-21T09:34:13.110Z,99.90
2022-08-21T09:36:46.394Z,99.90
2022-08-21T09:39:23.429Z,99.90
2022-08-21T09:41:58.510Z,99.90
2022-08-21T09:44:32.808Z,99.90
2022-08-21T09:47:00.622Z,99.90
2022-08-21T09:49:30.546Z,99.90
2022-08-21T09:51:59.857Z,99.90
2022-08-21T09:54:40.817Z,99.90
2022-08-21T09:57:39.404Z,99.90
2022-08-21T10:00:32.617Z,99.90
2022-08-21T10:03:21.747Z,99.90
2022-08-21T10:05:55.850Z,99.90
2022-08-21T10:08:25.566Z,99.90
2022-08-21T10:10:58.022Z,99.90
2022-08-21T10:13:55.000Z,99.90
2022-08-21T10:16:43.147Z,99.90
2022-08-21T10:19:34.834Z,99.90
2022-08-21T10:22:31.769Z,99.90
2022-08-21T10:25:22.059Z,99.90
2022-08-21T10:28:26.554Z,99.90
2022-08-21T10:31:16.023Z,99.90
2022-08-21T10:34:22.913Z,99.90
2022-08-21T10:37:26.462Z,99.90
2022-08-21T10:40:14.158Z,99.90
2022-08-21T10:43:28.885Z,97.60
2022-08-21T10:46:20.312Z,98.50
2022-08-21T10:49:00.428Z,98.30
2022-08-21T10:52:23.401Z,97.00
2022-08-21T10:55:01.168Z,98.00
2022-08-21T10:57:58.651Z,98.40
2022-08-21T11:00:48.287Z,96.00
2022-08-21T11:03:25.136Z,96.70
2022-08-21T11:06:03.464Z,95.30
2022-08-21T11:08:43.457Z,96.10
2022-08-21T11:11:22.189Z,97.30
2022-08-21T11:14:01.117Z,96.30
2022-08-21T11:16:50.280Z,94.00
2022-08-21T11:19:26.837Z,93.70
2022-08-21T11:22:23.887Z,93.70
2022-08-21T11:25:21.947Z,94.40
2022-08-21T11:28:02.988Z,92.30
2022-08-21T11:31:06.952Z,89.60
2022-08-21T11:33:55.082Z,89.20
2022-08-21T11:36:47.211Z,91.00
2022-08-21T11:39:25.210Z,89.50
2022-08-21T11:42:19.511Z,90.30
2022-08-21T11:45:28.270Z,84.70
2022-08-21T11:48:19.729Z,89.20
2022-08-21T11:50:49.455Z,86.70
2022-08-21T11:53:35.826Z,87.20
2022-08-21T11:56:12.826Z,85.80
2022-08-21T11:58:45.289Z,87.30
2022-08-21T12:01:20.090Z,84.80
2022-08-21T12:04:09.799Z,89.10
2022-08-21T12:06:40.692Z,90.30
2022-08-21T12:09:31.647Z,88.60
2022-08-21T12:12:22.033Z,83.00
2022-08-21T12:14:51.635Z,85.30
2022-08-21T12:17:21.685Z,87.00
2022-08-21T12:20:16.296Z,79.60
2022-08-21T12:22:54.359Z,80.80
2022-08-21T12:25:23.339Z,80.50
2022-08-21T12:27:54.084Z,74.00
2022-08-21T12:30:37.349Z,78.80
2022-08-21T12:33:25.805Z,82.80
2022-08-21T12:36:02.160Z,81.60
2022-08-21T12:38:34.435Z,79.60
2022-08-21T12:41:07.040Z,83.00
2022-08-21T12:43:44.733Z,82.60
2022-08-21T12:46:40.952Z,80.80
2022-08-21T12:49:31.773Z,80.20
2022-08-21T12:52:21.625Z,89.10
2022-08-21T12:54:48.935Z,88.40
2022-08-21T12:57:25.834Z,85.90
2022-08-21T13:00:01.551Z,74.70
2022-08-21T13:02:40.844Z,80.50
2022-08-21T13:05:13.343Z,80.90
2022-08-21T13:07:47.045Z,84.90
2022-08-21T13:10:25.636Z,89.30
2022-08-21T13:12:57.009Z,89.80
2022-08-21T13:15:33.313Z,84.40
2022-08-21T13:18:05.313Z,81.30
2022-08-21T13:20:43.293Z,78.90
2022-08-21T13:23:27.355Z,77.20
2022-08-21T13:25:55.669Z,77.80
2022-08-21T13:28:23.596Z,80.60
2022-08-21T13:30:54.897Z,80.10
2022-08-21T13:33:36.235Z,76.30
2022-08-21T13:36:18.242Z,76.10
2022-08-21T13:38:46.294Z,79.90
2022-08-21T13:41:28.334Z,77.30
2022-08-21T13:44:18.481Z,75.00
2022-08-21T13:46:50.315Z,71.10
2022-08-21T13:49:20.356Z,70.80
2022-08-21T13:51:49.118Z,66.30
2022-08-21T13:54:23.157Z,68.70
2022-08-21T13:56:51.211Z,70.80
2022-08-21T13:59:26.928Z,71.60
2022-08-21T14:02:00.291Z,65.10
2022-08-21T14:04:36.453Z,67.20
2022-08-21T14:07:17.252Z,65.10
2022-08-21T14:09:47.382Z,63.20
2022-08-21T14:12:28.944Z,58.60
2022-08-21T14:14:57.765Z,60.60
2022-08-21T14:17:34.268Z,60.40
2022-08-21T14:20:03.512Z,63.10
2022-08-21T14:22:43.154Z,60.00
2022-08-21T14:25:43.777Z,60.70
2022-08-21T14:28:42.434Z,60.30
2022-08-21T14:31:19.554Z,61.10
2022-08-21T14:33:47.613Z,62.10
2022-08-21T14:36:15.273Z,64.40
2022-08-21T14:38:42.670Z,64.40
2022-08-21T14:41:24.689Z,62.90
2022-08-21T14:43:59.824Z,62.90
2022-08-21T14:46:39.168Z,62.10
2022-08-21T14:49:24.149Z,63.80
2022-08-21T14:51:57.781Z,66.10
2022-08-21T14:54:30.631Z,64.50
2022-08-21T14:57:08.681Z,62.70
2022-08-21T14:59:37.302Z,64.90
2022-08-21T15:02:05.439Z,63.10
2022-08-21T15:04:34.221Z,64.60
2022-08-21T15:07:01.860Z,65.60
2022-08-21T15:09:29.655Z,66.50
2022-08-21T15:11:59.601Z,67.10
2022-08-21T15:14:30.115Z,65.60
2022-08-21T15:16:57.818Z,65.60
2022-08-21T15:19:25.636Z,66.80
2022-08-21T15:21:53.086Z,67.80
2022-08-21T15:24:20.435Z,68.30
2022-08-21T15:26:48.014Z,68.20
2022-08-21T15:29:22.760Z,69.60
2022-08-21T15:31:54.403Z,70.20
2022-08-21T15:34:23.316Z,69.00
2022-08-21T15:36:57.268Z,70.50
2022-08-21T15:39:31.623Z,73.10
2022-08-21T15:42:11.225Z,70.80
2022-08-21T15:44:40.387Z,72.00
2022-08-21T15:47:12.979Z,71.40
2022-08-21T15:49:43.630Z,72.00
2022-08-21T15:52:11.008Z,72.10
2022-08-21T15:54:38.376Z,74.80
2022-08-21T15:57:06.280Z,74.00
2022-08-21T15:59:46.230Z,75.00
2022-08-21T16:02:21.061Z,74.30
2022-08-21T16:04:48.402Z,74.40
2022-08-21T16:07:16.074Z,75.00
2022-08-21T16:09:43.455Z,74.30
2022-08-21T16:12:16.852Z,74.30
2022-08-21T16:14:44.264Z,75.10
2022-08-21T16:17:11.777Z,76.00
2022-08-21T16:19:39.671Z,77.80
2022-08-21T16:22:07.031Z,78.70
2022-08-21T16:24:34.531Z,78.70
2022-08-21T16:27:04.669Z,80.70
2022-08-21T16:29:39.694Z,81.70
2022-08-21T16:32:09.093Z,82.00
2022-08-21T16:34:38.367Z,83.30
2022-08-21T16:37:05.732Z,84.20
2022-08-21T16:39:33.169Z,85.40
2022-08-21T16:42:00.575Z,86.60
2022-08-21T16:44:31.114Z,89.40
2022-08-21T16:46:58.622Z,89.40
2022-08-21T16:49:26.090Z,89.70
2022-08-21T16:51:53.457Z,90.50
2022-08-21T16:54:20.806Z,90.70
2022-08-21T16:56:48.182Z,90.30
2022-08-21T16:59:17.434Z,90.00
2022-08-21T17:01:46.180Z,90.00
2022-08-21T17:04:13.807Z,91.10
2022-08-21T17:06:41.338Z,90.50
2022-08-21T17:09:08.654Z,90.40
2022-08-21T17:11:39.404Z,90.80
2022-08-21T17:14:13.634Z,90.70
2022-08-21T17:16:44.288Z,89.30
2022-08-21T17:19:13.080Z,90.40
2022-08-21T17:21:40.455Z,90.50
2022-08-21T17:24:08.005Z,90.90
2022-08-21T17:26:36.782Z,91.40
2022-08-21T17:29:09.759Z,90.90
2022-08-21T17:31:39.663Z,92.70
2022-08-21T17:34:07.229Z,92.30
2022-08-21T17:36:35.153Z,91.50
2022-08-21T17:39:03.610Z,92.40
2022-08-21T17:41:31.033Z,92.70
2022-08-21T17:44:01.240Z,93.10
2022-08-21T17:46:29.726Z,93.50
2022-08-21T17:48:57.328Z,94.10
2022-08-21T17:51:25.067Z,94.20
2022-08-21T17:53:52.688Z,94.60
2022-08-21T17:56:20.939Z,95.30
2022-08-21T17:58:50.903Z,95.60
2022-08-21T18:01:19.691Z,97.40
2022-08-21T18:03:48.324Z,98.20
2022-08-21T18:06:17.942Z,99.00
2022-08-21T18:08:46.630Z,99.60
2022-08-21T18:11:23.156Z,98.50
2022-08-21T18:13:53.524Z,99.10
2022-08-21T18:16:22.223Z,99.90
2022-08-21T18:18:51.740Z,99.90
2022-08-21T18:21:19.824Z,99.90
2022-08-21T18:23:47.224Z,99.90
2022-08-21T18:26:18.665Z,99.90
2022-08-21T18:28:45.984Z,99.90
2022-08-21T18:31:14.004Z,99.90
2022-08-21T18:33:43.633Z,99.90
2022-08-21T18:36:27.221Z,99.90
2022-08-21T18:39:01.220Z,99.90
2022-08-21T18:41:36.232Z,99.90
2022-08-21T18:44:03.885Z,99.90
2022-08-21T18:46:31.711Z,99.90
2022-08-21T18:48:59.485Z,99.90
2022-08-21T18:51:26.854Z,99.90
2022-08-21T18:53:56.276Z,99.90
2022-08-21T18:56:23.653Z,99.90
2022-08-21T18:58:57.545Z,99.90
2022-08-21T19:01:25.864Z,99.90
2022-08-21T19:03:53.217Z,99.90
2022-08-21T19:06:20.557Z,99.90
2022-08-21T19:08:47.875Z,99.90
2022-08-21T19:11:16.043Z,99.90
2022-08-21T19:13:53.323Z,99.90
2022-08-21T19:16:21.992Z,99.90
2022-08-21T19:18:50.020Z,99.90
2022-08-21T19:21:17.565Z,99.90
2022-08-21T19:23:48.256Z,99.90
2022-08-21T19:26:23.095Z,99.90
2022-08-21T19:28:53.824Z,99.90
2022-08-21T19:31:27.776Z,99.90
2022-08-21T19:34:02.130Z,99.90
2022-08-21T19:36:30.509Z,99.90
2022-08-21T19:38:59.236Z,99.90
2022-08-21T19:41:30.013Z,99.90
2022-08-21T19:44:01.887Z,99.90
2022-08-21T19:46:37.832Z,99.90
2022-08-21T19:49:08.504Z,99.90
2022-08-21T19:51:37.889Z,99.90
2022-08-21T19:54:06.056Z,99.90
2022-08-21T19:56:38.503Z,99.90
2022-08-21T19:59:09.378Z,99.90
2022-08-21T20:01:40.067Z,99.90
2022-08-21T20:04:10.713Z,99.90
2022-08-21T20:06:47.235Z,99.90
2022-08-21T20:09:15.325Z,99.90
2022-08-21T20:11:49.247Z,99.90
2022-08-21T20:14:20.248Z,99.90
2022-08-21T20:16:48.667Z,99.90
2022-08-21T20:19:22.216Z,99.90
2022-08-21T20:21:49.630Z,99.90
2022-08-21T20:24:17.374Z,99.90
2022-08-21T20:29:36.086Z,99.90
2022-08-21T20:34:55.473Z,99.90
2022-08-21T20:37:36.565Z,99.90
2022-08-21T20:40:12.623Z,99.90
2022-08-21T20:42:44.708Z,99.90
2022-08-21T20:45:24.700Z,99.90
2022-08-21T20:48:04.579Z,99.90
2022-08-21T20:54:01.016Z,99.90
2022-08-21T20:56:59.947Z,99.90
2022-08-21T20:59:45.137Z,99.90
2022-08-21T21:02:53.761Z,99.90
2022-08-21T21:05:28.114Z,99.90
2022-08-21T21:08:09.249Z,99.90
2022-08-21T21:10:53.993Z,99.90
2022-08-21T21:13:24.701Z,99.90
2022-08-21T21:15:56.291Z,99.90
2022-08-21T21:18:35.086Z,99.90
2022-08-21T21:21:34.924Z,99.90
2022-08-21T21:24:22.740Z,99.90
2022-08-21T21:26:59.988Z,99.90
2022-08-21T21:29:37.169Z,99.90
2022-08-21T21:32:05.399Z,99.90
2022-08-21T21:34:45.041Z,99.90
2022-08-21T21:37:19.235Z,99.90
2022-08-21T21:40:39.134Z,99.90
2022-08-21T21:43:21.356Z,99.90
2022-08-21T21:46:07.066Z,99.90
2022-08-21T21:49:06.691Z,99.90
2022-08-21T21:52:05.424Z,99.90
2022-08-21T21:55:02.906Z,99.90
2022-08-21T21:57:58.771Z,99.90
2022-08-21T22:00:30.713Z,99.90
2022-08-21T22:03:15.054Z,99.90
2022-08-21T22:06:23.149Z,99.90
2022-08-21T22:09:36.812Z,99.90
2022-08-21T22:12:32.828Z,99.90
2022-08-21T22:15:00.305Z,99.90
2022-08-21T22:17:50.592Z,99.90
2022-08-21T22:20:28.723Z,99.90
2022-08-21T22:22:57.757Z,99.90
2022-08-21T22:25:30.414Z,99.90
2022-08-21T22:28:05.992Z,99.90
2022-08-21T22:30:48.527Z,99.90
2022-08-21T22:33:27.088Z,99.90
2022-08-21T22:35:58.878Z,99.90
2022-08-21T22:38:33.897Z,99.90
2022-08-21T22:41:18.063Z,99.90
2022-08-21T22:44:01.770Z,99.90
2022-08-21T22:46:52.956Z,99.90
2022-08-21T22:49:43.471Z,99.90
2022-08-21T22:52:26.691Z,99.90
2022-08-21T22:54:57.616Z,99.90
2022-08-21T22:57:35.870Z,99.90
2022-08-21T23:00:14.226Z,99.90
2022-08-21T23:03:17.238Z,99.90
2022-08-21T23:05:44.858Z,99.90
2022-08-21T23:08:36.862Z,99.90
2022-08-21T23:11:18.276Z,99.90
2022-08-21T23:13:47.878Z,99.90
2022-08-21T23:16:51.152Z,99.90
2022-08-21T23:19:48.191Z,99.90
2022-08-21T23:22:49.070Z,99.90
2022-08-21T23:26:17.408Z,99.90
2022-08-21T23:29:13.281Z,99.90
2022-08-21T23:32:08.560Z,99.90
2022-08-21T23:34:48.829Z,99.90
2022-08-21T23:37:51.654Z,99.90
2022-08-21T23:44:25.211Z,99.90
2022-08-21T23:47:17.583Z,99.90
2022-08-21T23:53:18.713Z,99.90
2022-08-21T23:56:25.158Z,99.90
